createdAt,value
2022-09-17T00:00:58.866Z,95106.00
2022-09-17T00:05:01.647Z,95119.00
2022-09-17T00:09:07.692Z,95101.00
2022-09-17T00:13:11.744Z,95116.00
2022-09-17T00:17:14.483Z,95106.00
2022-09-17T00:21:17.789Z,95102.00
2022-09-17T00:25:21.847Z,95105.00
2022-09-17T00:29:24.495Z,95114.00
2022-09-17T00:33:27.439Z,95117.00
2022-09-17T00:37:30.097Z,95104.00
2022-09-17T00:41:36.579Z,95114.00
2022-09-17T00:45:40.043Z,95112.00
2022-09-17T00:49:43.573Z,95119.00
2022-09-17T00:53:46.441Z,95114.00
2022-09-17T00:57:53.675Z,95114.00
2022-09-17T01:01:56.502Z,95122.00
2022-09-17T01:06:11.663Z,95136.00
2022-09-17T01:10:28.992Z,95137.00
2022-09-17T01:14:47.667Z,95127.00
2022-09-17T01:19:03.735Z,95118.00
2022-09-17T01:23:29.891Z,95118.00
2022-09-17T01:28:18.725Z,95118.00
2022-09-17T01:32:27.099Z,95117.00
2022-09-17T01:36:42.645Z,95124.00
2022-09-17T01:40:52.067Z,95124.00
2022-09-17T01:45:01.321Z,95122.00
2022-09-17T01:49:08.485Z,95129.00
2022-09-17T01:53:12.976Z,95124.00
2022-09-17T01:57:19.951Z,95131.00
2022-09-17T02:01:25.171Z,95133.00
2022-09-17T02:05:33.621Z,95131.00
2022-09-17T02:09:41.635Z,95126.00
2022-09-17T02:13:51.234Z,95138.00
2022-09-17T02:17:58.407Z,95129.00
2022-09-17T02:22:06.193Z,95121.00
2022-09-17T02:26:13.217Z,95114.00
2022-09-17T02:30:16.295Z,95124.00
2022-09-17T02:34:20.027Z,95114.00
2022-09-17T02:38:26.211Z,95101.00
2022-09-17T02:42:33.930Z,95097.00
2022-09-17T02:47:01.134Z,95095.00
2022-09-17T02:51:12.692Z,95085.00
2022-09-17T02:55:22.980Z,95077.00
2022-09-17T02:59:30.578Z,95081.00
2022-09-17T03:03:37.141Z,95075.00
2022-09-17T03:07:39.818Z,95075.00
2022-09-17T03:11:43.983Z,95071.00
2022-09-17T03:15:46.723Z,95071.00
2022-09-17T03:19:49.407Z,95074.00
2022-09-17T03:23:52.890Z,95070.00
2022-09-17T03:27:56.910Z,95065.00
2022-09-17T03:32:00.288Z,95070.00
2022-09-17T03:36:03.270Z,95074.00
2022-09-17T03:40:07.209Z,95066.00
2022-09-17T03:44:11.435Z,95076.00
2022-09-17T03:48:14.139Z,95081.00
2022-09-17T03:52:16.845Z,95087.00
2022-09-17T03:56:19.722Z,95086.00
2022-09-17T04:00:24.237Z,95077.00
2022-09-17T04:04:26.980Z,95074.00
2022-09-17T04:08:29.701Z,95069.00
2022-09-17T04:12:32.385Z,95070.00
2022-09-17T04:16:36.438Z,95072.00
2022-09-17T04:20:39.273Z,95075.00
2022-09-17T04:24:41.947Z,95069.00
2022-09-17T04:28:44.686Z,95055.00
2022-09-17T04:32:48.707Z,95071.00
2022-09-17T04:36:51.513Z,95078.00
2022-09-17T04:40:57.198Z,95091.00
2022-09-17T04:44:59.942Z,95082.00
2022-09-17T04:49:03.973Z,95089.00
2022-09-17T04:53:06.694Z,95091.00
2022-09-17T04:57:09.386Z,95101.00
2022-09-17T05:01:13.797Z,95108.00
2022-09-17T05:05:19.403Z,95121.00
2022-09-17T05:09:22.063Z,95161.00
2022-09-17T05:13:24.754Z,95171.00
2022-09-17T05:17:27.458Z,95170.00
2022-09-17T05:21:31.537Z,95182.00
2022-09-17T05:25:34.218Z,95197.00
2022-09-17T05:29:37.048Z,95209.00
2022-09-17T05:33:39.733Z,95221.00
2022-09-17T05:37:43.801Z,95225.00
2022-09-17T05:41:46.458Z,95231.00
2022-09-17T05:45:49.192Z,95233.00
2022-09-17T05:49:51.942Z,95239.00
2022-09-17T05:53:56.599Z,95250.00
2022-09-17T05:57:59.258Z,95245.00
2022-09-17T06:02:02.062Z,95251.00
2022-09-17T06:06:05.197Z,95257.00
2022-09-17T06:10:09.710Z,95252.00
2022-09-17T06:14:12.514Z,95239.00
2022-09-17T06:18:15.195Z,95243.00
2022-09-17T06:22:19.460Z,95237.00
2022-09-17T06:26:23.538Z,95240.00
2022-09-17T06:30:26.188Z,95240.00
2022-09-17T06:34:28.875Z,95260.00
2022-09-17T06:38:33.518Z,95261.00
2022-09-17T06:42:37.542Z,95252.00
2022-09-17T06:46:40.308Z,95254.00
2022-09-17T06:50:43.090Z,95259.00
2022-09-17T06:54:45.757Z,95258.00
2022-09-17T06:58:49.826Z,95262.00
2022-09-17T07:03:02.062Z,95247.00
2022-09-17T07:07:05.731Z,95250.00
2022-09-17T07:11:09.001Z,95232.00
2022-09-17T07:15:15.839Z,95236.00
2022-09-17T07:19:18.496Z,95211.00
2022-09-17T07:23:21.182Z,95232.00
2022-09-17T07:27:23.871Z,95220.00
2022-09-17T07:31:27.991Z,95228.00
2022-09-17T07:35:30.839Z,95237.00
2022-09-17T07:39:33.506Z,95247.00
2022-09-17T07:43:36.882Z,95240.00
2022-09-17T07:47:42.138Z,95242.00
2022-09-17T07:51:44.822Z,95241.00
2022-09-17T07:55:52.524Z,95234.00
2022-09-17T07:59:55.249Z,95233.00
2022-09-17T08:03:59.295Z,95231.00
2022-09-17T08:08:02.792Z,95230.00
2022-09-17T08:12:05.942Z,95243.00
2022-09-17T08:16:13.130Z,95247.00
2022-09-17T08:20:18.466Z,95242.00
2022-09-17T08:24:21.179Z,95241.00
2022-09-17T08:28:25.321Z,95262.00
2022-09-17T08:32:30.680Z,95269.00
2022-09-17T08:36:34.718Z,95269.00
2022-09-17T08:40:44.058Z,95281.00
2022-09-17T08:44:51.675Z,95271.00
2022-09-17T08:49:07.776Z,95273.00
2022-09-17T08:53:28.017Z,95278.00
2022-09-17T08:57:38.443Z,95283.00
2022-09-17T09:01:46.448Z,95295.00
2022-09-17T09:05:52.648Z,95297.00
2022-09-17T09:10:05.985Z,95304.00
2022-09-17T09:14:21.007Z,95304.00
2022-09-17T09:18:25.909Z,95310.00
2022-09-17T09:22:46.567Z,95307.00
2022-09-17T09:27:02.004Z,95307.00
2022-09-17T09:31:16.399Z,95314.00
2022-09-17T09:35:21.475Z,95300.00
2022-09-17T09:39:34.648Z,95314.00
2022-09-17T09:44:03.200Z,95322.00
2022-09-17T09:48:18.129Z,95312.00
2022-09-17T09:52:36.070Z,95330.00
2022-09-17T09:56:54.323Z,95317.00
2022-09-17T10:00:58.407Z,95326.00
2022-09-17T10:05:09.547Z,95341.00
2022-09-17T10:09:13.864Z,95337.00
2022-09-17T10:13:17.752Z,95340.00
2022-09-17T10:17:23.956Z,95334.00
2022-09-17T10:21:34.996Z,95346.00
2022-09-17T10:25:44.075Z,95341.00
2022-09-17T10:29:49.126Z,95338.00
2022-09-17T10:33:57.301Z,95328.00
2022-09-17T10:38:00.007Z,95337.00
2022-09-17T10:42:04.334Z,95332.00
2022-09-17T10:46:10.820Z,95334.00
2022-09-17T10:50:19.208Z,95337.00
2022-09-17T10:54:53.619Z,95335.00
2022-09-17T10:59:06.014Z,95340.00
2022-09-17T11:04:00.269Z,95342.00
2022-09-17T11:08:11.786Z,95337.00
2022-09-17T11:12:31.648Z,95338.00
2022-09-17T11:16:41.821Z,95336.00
2022-09-17T11:20:58.375Z,95340.00
2022-09-17T11:25:18.695Z,95325.00
2022-09-17T11:29:38.026Z,95334.00
2022-09-17T11:33:56.819Z,95329.00
2022-09-17T11:38:05.980Z,95326.00
2022-09-17T11:42:16.359Z,95320.00
2022-09-17T11:46:23.719Z,95322.00
2022-09-17T11:50:30.210Z,95309.00
2022-09-17T11:54:37.556Z,95315.00
2022-09-17T11:58:45.359Z,95319.00
2022-09-17T12:02:54.012Z,95310.00
2022-09-17T12:07:02.413Z,95310.00
2022-09-17T12:11:11.031Z,95304.00
2022-09-17T12:15:21.506Z,95306.00
2022-09-17T12:19:33.453Z,95299.00
2022-09-17T12:23:40.082Z,95297.00
2022-09-17T12:27:52.694Z,95293.00
2022-09-17T12:32:02.562Z,95295.00
2022-09-17T12:36:29.487Z,95292.00
2022-09-17T12:40:38.972Z,95291.00
2022-09-17T12:45:00.425Z,95286.00
2022-09-17T12:49:21.484Z,95280.00
2022-09-17T12:53:30.178Z,95283.00
2022-09-17T12:57:39.885Z,95275.00
2022-09-17T13:01:52.113Z,95279.00
2022-09-17T13:06:39.081Z,95276.00
2022-09-17T13:10:51.521Z,95281.00
2022-09-17T13:15:18.203Z,95274.00
2022-09-17T13:19:30.380Z,95273.00
2022-09-17T13:23:39.339Z,95285.00
2022-09-17T13:27:42.984Z,95288.00
2022-09-17T13:31:49.928Z,95282.00
2022-09-17T13:35:52.964Z,95287.00
2022-09-17T13:39:58.566Z,95277.00
2022-09-17T13:44:02.955Z,95281.00
2022-09-17T13:48:08.975Z,95271.00
2022-09-17T13:52:12.255Z,95273.00
2022-09-17T14:00:52.178Z,95295.00
2022-09-17T14:04:56.228Z,95295.00
2022-09-17T14:09:03.146Z,95296.00
2022-09-17T14:13:33.186Z,95298.00
2022-09-17T14:17:53.926Z,95304.00
2022-09-17T14:22:00.430Z,95292.00
2022-09-17T14:26:06.090Z,95297.00
2022-09-17T14:30:15.185Z,95294.00
2022-09-17T14:34:23.344Z,95291.00
2022-09-17T14:38:33.123Z,95297.00
2022-09-17T14:42:37.446Z,95299.00
2022-09-17T14:46:49.385Z,95311.00
2022-09-17T14:50:54.090Z,95324.00
2022-09-17T14:55:20.059Z,95332.00
2022-09-17T14:59:29.158Z,95334.00
2022-09-17T15:03:31.859Z,95326.00
2022-09-17T15:07:35.984Z,95330.00
2022-09-17T15:11:43.636Z,95341.00
2022-09-17T15:15:54.839Z,95348.00
2022-09-17T15:19:59.099Z,95334.00
2022-09-17T15:24:15.024Z,95340.00
2022-09-17T15:28:28.494Z,95342.00
2022-09-17T15:32:32.155Z,95332.00
2022-09-17T15:36:34.838Z,95340.00
2022-09-17T15:40:41.966Z,95343.00
2022-09-17T15:44:44.995Z,95351.00
2022-09-17T15:48:47.772Z,95356.00
2022-09-17T15:52:51.807Z,95364.00
2022-09-17T15:56:58.527Z,95359.00
2022-09-17T16:01:38.001Z,95366.00
2022-09-17T16:05:46.487Z,95350.00
2022-09-17T16:09:50.745Z,95363.00
2022-09-17T16:13:56.207Z,95375.00
2022-09-17T16:17:58.882Z,95365.00
2022-09-17T16:22:01.512Z,95357.00
2022-09-17T16:26:04.490Z,95354.00
2022-09-17T16:30:14.483Z,95358.00
2022-09-17T16:34:17.154Z,95354.00
2022-09-17T16:38:19.818Z,95358.00
2022-09-17T16:42:22.491Z,95363.00
2022-09-17T16:46:26.817Z,95365.00
2022-09-17T16:50:29.589Z,95373.00
2022-09-17T16:54:32.295Z,95379.00
2022-09-17T16:58:35.347Z,95376.00
2022-09-17T17:02:39.460Z,95379.00
2022-09-17T17:06:42.166Z,95382.00
2022-09-17T17:10:44.850Z,95377.00
2022-09-17T17:14:50.024Z,95385.00
2022-09-17T17:18:55.496Z,95377.00
2022-09-17T17:22:58.183Z,95382.00
2022-09-17T17:27:01.620Z,95389.00
2022-09-17T17:31:04.683Z,95390.00
2022-09-17T17:35:09.963Z,95388.00
2022-09-17T17:39:12.659Z,95393.00
2022-09-17T17:43:15.371Z,95390.00
2022-09-17T17:47:18.138Z,95392.00
2022-09-17T17:51:23.776Z,95402.00
2022-09-17T17:55:26.687Z,95403.00
2022-09-17T17:59:29.606Z,95403.00
2022-09-17T18:03:32.421Z,95421.00
2022-09-17T18:07:36.741Z,95420.00
2022-09-17T18:11:39.439Z,95421.00
2022-09-17T18:15:51.997Z,95430.00
2022-09-17T18:19:56.300Z,95441.00
2022-09-17T18:24:00.336Z,95434.00
2022-09-17T18:28:03.581Z,95459.00
2022-09-17T18:32:06.367Z,95460.00
2022-09-17T18:36:09.070Z,95461.00
2022-09-17T18:40:13.732Z,95459.00
2022-09-17T18:44:18.604Z,95460.00
2022-09-17T18:48:21.266Z,95462.00
2022-09-17T18:52:23.947Z,95463.00
2022-09-17T18:56:29.307Z,95468.00
2022-09-17T19:00:32.051Z,95483.00
2022-09-17T19:04:34.750Z,95479.00
2022-09-17T19:08:37.695Z,95480.00
2022-09-17T19:12:43.132Z,95480.00
2022-09-17T19:16:45.850Z,95484.00
2022-09-17T19:20:48.525Z,95486.00
2022-09-17T19:24:51.214Z,95477.00
2022-09-17T19:28:57.478Z,95474.00
2022-09-17T19:33:00.306Z,95476.00
2022-09-17T19:37:03.858Z,95487.00
2022-09-17T19:41:08.382Z,95492.00
2022-09-17T19:45:12.486Z,95484.00
2022-09-17T19:49:15.191Z,95485.00
2022-09-17T19:53:17.877Z,95477.00
2022-09-17T19:57:20.574Z,95481.00
2022-09-17T20:01:24.699Z,95470.00
2022-09-17T20:05:27.892Z,95483.00
2022-09-17T20:09:33.072Z,95485.00
2022-09-17T20:13:36.457Z,95491.00
2022-09-17T20:17:40.568Z,95508.00
2022-09-17T20:21:43.708Z,95503.00
2022-09-17T20:25:52.474Z,95490.00
2022-09-17T20:29:55.483Z,95486.00
2022-09-17T20:34:01.418Z,95486.00
2022-09-17T20:39:09.450Z,95482.00
2022-09-17T20:42:30.145Z,95479.00
2022-09-17T20:46:33.143Z,95476.00
2022-09-17T20:50:37.191Z,95479.00
2022-09-17T20:54:39.878Z,95477.00
2022-09-17T20:58:48.412Z,95470.00
2022-09-17T21:02:54.187Z,95478.00
2022-09-17T21:06:58.216Z,95472.00
2022-09-17T21:11:05.526Z,95476.00
2022-09-17T21:15:08.926Z,95477.00
2022-09-17T21:19:13.233Z,95489.00
2022-09-17T21:23:17.324Z,95493.00
2022-09-17T21:27:19.994Z,95501.00
2022-09-17T21:31:29.588Z,95501.00
2022-09-17T21:35:34.674Z,95512.00
2022-09-17T21:39:38.958Z,95523.00
2022-09-17T21:43:42.665Z,95511.00
2022-09-17T21:47:45.341Z,95533.00
2022-09-17T21:51:48.086Z,95537.00
2022-09-17T21:55:52.132Z,95510.00
2022-09-17T21:59:54.816Z,95516.00
2022-09-17T22:03:57.542Z,95502.00
2022-09-17T22:08:00.422Z,95492.00
2022-09-17T22:12:06.381Z,95495.00
2022-09-17T22:16:10.855Z,95497.00
2022-09-17T22:20:14.131Z,95507.00
2022-09-17T22:24:18.067Z,95496.00
2022-09-17T22:28:24.999Z,95494.00
2022-09-17T22:32:28.626Z,95498.00
2022-09-17T22:36:31.338Z,95510.00
2022-09-17T22:40:36.487Z,95498.00
2022-09-17T22:44:40.990Z,95503.00
2022-09-17T22:48:43.991Z,95506.00
2022-09-17T22:52:48.245Z,95503.00
2022-09-17T22:56:50.947Z,95514.00
2022-09-17T23:00:55.731Z,95516.00
2022-09-17T23:04:58.669Z,95509.00
2022-09-17T23:09:01.438Z,95514.00
2022-09-17T23:13:04.409Z,95514.00
2022-09-17T23:17:08.449Z,95525.00
2022-09-17T23:21:14.189Z,95525.00
2022-09-17T23:25:16.950Z,95516.00
2022-09-17T23:29:19.783Z,95522.00
2022-09-17T23:33:23.798Z,95522.00
2022-09-17T23:37:26.466Z,95530.00
2022-09-17T23:41:30.729Z,95529.00
2022-09-17T23:45:33.414Z,95536.00
2022-09-17T23:49:37.586Z,95534.00
2022-09-17T23:53:40.663Z,95542.00
2022-09-17T23:57:43.957Z,95543.00
